Terminal Aerodrome Forecast
Issued by NWS

Home | Current Version | Previous Version | Graphics & Text | Print | Product List | Glossary On
Versions: 1 2 3 4 5 6 7 8 9 10 11 12 13 14 15 16 17 18 19 20 21 22 23 24 25 26 27 28 29 30 31 32 33 34 35 36 37 38 39 40 41 42 43 44 45
000
FTUS43 KLOT 042329
TAFORD
TAF
KORD 042329Z 0500/0606 05009KT P6SM FEW045 SCT100 BKN250
     FM050600 06007KT 6SM -SHRA VCTS SCT030CB BKN045
     FM050900 06009KT 4SM -SHRA VCTS BKN025CB OVC040
     FM051200 06010KT 3SM -SHRA BR OVC010
     FM051800 07011KT P6SM SCT015 BKN050
     FM060200 08007KT P6SM BKN060=

USA.gov is the U.S. government's official web portal to all federal, state and local government web resources and services.